createdAt,value
2019-04-22T00:00:16.686Z,7.80
2019-04-22T00:02:51.419Z,8.53
2019-04-22T00:05:36.770Z,7.67
2019-04-22T00:08:08.581Z,7.33
2019-04-22T00:10:48.703Z,7.27
2019-04-22T00:13:20.000Z,7.40
2019-04-22T00:15:39.210Z,8.13
2019-04-22T00:18:13.400Z,7.07
2019-04-22T00:20:43.666Z,7.23
2019-04-22T00:23:12.904Z,7.07
2019-04-22T00:25:50.670Z,7.30
2019-04-22T00:28:19.751Z,6.87
2019-04-22T00:30:41.906Z,7.17
2019-04-22T00:33:17.993Z,7.07
2019-04-22T00:35:41.410Z,6.97
2019-04-22T00:38:20.434Z,6.80
2019-04-22T00:40:44.611Z,7.63
2019-04-22T00:43:19.168Z,7.50
2019-04-22T00:45:49.287Z,6.60
2019-04-22T00:48:20.756Z,7.13
2019-04-22T00:50:55.480Z,7.17
2019-04-22T00:53:22.555Z,7.13
2019-04-22T00:58:37.838Z,7.70
2019-04-22T01:01:07.867Z,7.60
2019-04-22T01:03:44.229Z,7.87
2019-04-22T01:06:12.651Z,7.87
2019-04-22T01:08:49.344Z,9.00
2019-04-22T01:11:13.341Z,9.10
2019-04-22T01:13:41.061Z,7.53
2019-04-22T01:16:10.935Z,7.17
2019-04-22T01:18:36.243Z,6.97
2019-04-22T01:21:20.902Z,7.87
2019-04-22T01:23:34.529Z,7.13
2019-04-22T01:26:05.318Z,7.27
2019-04-22T01:28:36.759Z,6.87
2019-04-22T01:31:01.001Z,6.73
2019-04-22T01:33:33.395Z,7.20
2019-04-22T01:36:16.897Z,7.17
2019-04-22T01:38:51.171Z,7.10
2019-04-22T01:41:25.335Z,7.40
2019-04-22T01:44:00.383Z,7.00
2019-04-22T01:46:24.993Z,7.47
2019-04-22T01:48:55.470Z,6.97
2019-04-22T01:51:35.475Z,6.43
2019-04-22T01:53:57.690Z,6.80
2019-04-22T01:56:24.196Z,6.93
2019-04-22T01:58:44.324Z,7.30
2019-04-22T02:01:26.618Z,7.40
2019-04-22T02:03:57.875Z,7.23
2019-04-22T02:06:21.918Z,7.37
2019-04-22T02:11:26.059Z,7.50
2019-04-22T02:13:56.551Z,7.00
2019-04-22T02:16:27.364Z,6.80
2019-04-22T02:18:58.407Z,7.37
2019-04-22T02:21:23.440Z,7.10
2019-04-22T02:23:53.991Z,7.53
2019-04-22T02:26:25.951Z,7.43
2019-04-22T02:29:06.626Z,7.30
2019-04-22T02:39:16.131Z,7.10
2019-04-22T02:44:13.532Z,6.80
2019-04-22T02:51:27.817Z,7.30
2019-04-22T02:54:22.313Z,7.00
2019-04-22T03:04:06.944Z,7.33
2019-04-22T03:06:38.503Z,7.30
2019-04-22T03:09:07.597Z,7.10
2019-04-22T03:14:04.666Z,7.50
2019-04-22T03:16:37.640Z,6.87
2019-04-22T03:19:18.121Z,7.00
2019-04-22T03:21:34.409Z,6.33
2019-04-22T03:24:17.531Z,6.83
2019-04-22T03:29:10.785Z,7.23
2019-04-22T03:39:38.037Z,6.73
2019-04-22T03:44:31.156Z,7.20
2019-04-22T03:47:11.460Z,6.70
2019-04-22T03:59:33.601Z,7.10
2019-04-22T04:04:39.277Z,7.47
2019-04-22T04:07:22.453Z,7.67
2019-04-22T04:11:59.970Z,7.60
2019-04-22T04:14:35.910Z,7.60
2019-04-22T04:19:34.145Z,7.47
2019-04-22T04:21:57.803Z,7.70
2019-04-22T04:27:14.974Z,7.07
2019-04-22T04:29:51.360Z,6.70
2019-04-22T04:32:09.929Z,6.60
2019-04-22T04:34:42.979Z,7.37
2019-04-22T04:37:09.017Z,6.93
2019-04-22T04:42:05.390Z,6.97
2019-04-22T04:52:10.455Z,7.80
2019-04-22T04:54:41.471Z,6.90
2019-04-22T04:56:57.093Z,7.47
2019-04-22T05:02:06.364Z,7.40
2019-04-22T05:04:41.905Z,7.30
2019-04-22T05:07:17.695Z,8.00
2019-04-22T05:09:19.589Z,7.27
2019-04-22T05:12:19.015Z,6.80
2019-04-22T05:14:24.852Z,7.57
2019-04-22T05:19:26.606Z,7.17
2019-04-22T05:21:59.541Z,6.97
2019-04-22T05:26:56.741Z,7.53
2019-04-22T05:29:32.883Z,7.00
2019-04-22T05:31:56.784Z,7.70
2019-04-22T05:34:39.845Z,7.03
2019-04-22T05:36:53.941Z,7.60
2019-04-22T05:39:24.194Z,7.00
2019-04-22T05:41:54.869Z,7.27
2019-04-22T05:44:22.717Z,8.03
2019-04-22T05:46:56.961Z,7.10
2019-04-22T05:49:23.759Z,7.43
2019-04-22T05:51:55.017Z,7.13
2019-04-22T05:54:27.340Z,7.43
2019-04-22T05:56:58.228Z,6.90
2019-04-22T05:59:27.351Z,7.17
2019-04-22T06:02:04.796Z,6.70
2019-04-22T06:04:25.489Z,6.97
2019-04-22T06:06:54.241Z,6.93
2019-04-22T06:09:28.467Z,7.73
2019-04-22T06:11:54.360Z,8.03
2019-04-22T06:14:26.381Z,7.60
2019-04-22T06:17:08.298Z,8.70
2019-04-22T06:19:33.223Z,8.00
2019-04-22T06:22:06.345Z,7.23
2019-04-22T06:24:33.283Z,7.17
2019-04-22T06:27:08.099Z,7.07
2019-04-22T06:29:32.004Z,6.87
2019-04-22T06:34:36.551Z,7.00
2019-04-22T06:37:11.925Z,7.03
2019-04-22T06:39:34.534Z,6.57
2019-04-22T06:42:08.065Z,6.80
2019-04-22T06:44:36.499Z,6.93
2019-04-22T06:47:12.879Z,6.93
2019-04-22T06:49:35.611Z,7.20
2019-04-22T06:52:12.929Z,7.80
2019-04-22T06:54:35.651Z,6.93
2019-04-22T06:57:05.867Z,7.00
2019-04-22T06:59:37.650Z,6.77
2019-04-22T07:02:11.408Z,6.10
2019-04-22T07:04:38.336Z,6.20
2019-04-22T07:07:06.469Z,6.00
2019-04-22T07:12:06.388Z,5.67
2019-04-22T07:14:35.261Z,6.00
2019-04-22T07:17:08.861Z,5.60
2019-04-22T07:19:38.379Z,4.57
2019-04-22T07:22:11.038Z,5.20
2019-04-22T07:29:39.315Z,4.30
2019-04-22T07:32:07.130Z,4.53
2019-04-22T07:34:40.806Z,4.00
2019-04-22T07:42:17.094Z,4.00
2019-04-22T07:44:43.044Z,4.15
2019-04-22T07:47:13.956Z,4.03
2019-04-22T07:49:41.174Z,3.77
2019-04-22T07:52:09.738Z,3.72
2019-04-22T07:54:45.025Z,3.95
2019-04-22T07:57:18.441Z,3.42
2019-04-22T07:59:46.963Z,3.58
2019-04-22T08:02:10.435Z,3.42
2019-04-22T08:07:12.444Z,3.12
2019-04-22T08:09:47.200Z,3.47
2019-04-22T08:12:02.484Z,3.22
2019-04-22T08:14:40.797Z,3.37
2019-04-22T08:17:43.078Z,3.30
2019-04-22T08:19:41.982Z,3.35
2019-04-22T08:22:11.809Z,2.72
2019-04-22T08:24:42.232Z,3.60
2019-04-22T08:27:10.353Z,3.55
2019-04-22T08:32:14.584Z,3.10
2019-04-22T08:34:56.479Z,3.42
2019-04-22T08:37:41.490Z,3.37
2019-04-22T08:39:40.965Z,3.20
2019-04-22T08:42:17.945Z,3.37
2019-04-22T08:44:56.788Z,3.20
2019-04-22T08:47:21.019Z,3.40
2019-04-22T08:49:50.674Z,3.12
2019-04-22T08:52:17.828Z,3.50
2019-04-22T08:54:44.591Z,3.10
2019-04-22T08:57:18.246Z,3.05
2019-04-22T08:59:43.354Z,3.37
2019-04-22T09:02:20.230Z,3.10
2019-04-22T09:04:44.617Z,2.58
2019-04-22T09:09:44.776Z,2.70
2019-04-22T09:12:15.965Z,2.62
2019-04-22T09:17:17.962Z,2.90
2019-04-22T09:19:42.554Z,3.10
2019-04-22T09:22:26.329Z,3.20
2019-04-22T09:24:48.875Z,3.27
2019-04-22T09:29:42.843Z,2.70
2019-04-22T09:32:24.865Z,2.42
2019-04-22T09:34:50.200Z,2.60
2019-04-22T09:37:21.090Z,2.80
2019-04-22T09:39:50.794Z,3.25
2019-04-22T09:42:21.955Z,2.70
2019-04-22T09:44:50.020Z,2.35
2019-04-22T09:47:19.308Z,2.70
2019-04-22T09:50:03.793Z,2.77
2019-04-22T09:52:14.891Z,2.72
2019-04-22T09:54:53.231Z,2.85
2019-04-22T09:57:20.164Z,2.60
2019-04-22T09:59:56.239Z,2.52
2019-04-22T10:04:54.111Z,2.90
2019-04-22T10:07:24.081Z,2.77
2019-04-22T10:09:59.712Z,2.42
2019-04-22T10:12:29.940Z,2.90
2019-04-22T10:14:49.232Z,2.85
2019-04-22T10:17:20.298Z,3.10
2019-04-22T10:19:46.811Z,2.72
2019-04-22T10:22:27.986Z,2.20
2019-04-22T10:24:55.826Z,2.83
2019-04-22T10:27:24.334Z,2.50
2019-04-22T10:29:54.244Z,2.62
2019-04-22T10:32:18.840Z,2.72
2019-04-22T10:34:34.769Z,2.72
2019-04-22T10:37:02.178Z,2.33
2019-04-22T10:39:39.293Z,2.30
2019-04-22T10:41:58.770Z,2.50
2019-04-22T10:44:28.794Z,2.40
2019-04-22T10:46:58.046Z,2.30
2019-04-22T10:49:26.711Z,2.65
2019-04-22T10:51:55.261Z,2.20
2019-04-22T10:54:23.722Z,2.50
2019-04-22T10:56:52.783Z,2.30
2019-04-22T10:59:22.602Z,2.40
2019-04-22T11:01:51.145Z,2.50
2019-04-22T11:04:19.558Z,2.10
2019-04-22T11:06:55.601Z,2.47
2019-04-22T11:09:18.532Z,2.02
2019-04-22T11:11:56.576Z,2.45
2019-04-22T11:14:18.892Z,2.30
2019-04-22T11:16:47.740Z,2.30
2019-04-22T11:19:17.342Z,2.17
2019-04-22T11:21:57.930Z,2.20
2019-04-22T11:24:16.915Z,2.20
2019-04-22T11:26:45.384Z,1.85
2019-04-22T11:29:14.055Z,2.20
2019-04-22T11:31:44.237Z,2.42
2019-04-22T11:34:13.150Z,2.62
2019-04-22T11:36:42.901Z,2.27
2019-04-22T11:39:13.627Z,2.40
2019-04-22T11:41:42.157Z,2.50
2019-04-22T11:44:11.472Z,2.35
2019-04-22T11:46:41.071Z,2.47
2019-04-22T11:49:09.940Z,2.87
2019-04-22T11:51:38.513Z,2.47
2019-04-22T11:54:07.505Z,2.50
2019-04-22T11:56:36.939Z,2.45
2019-04-22T11:59:07.161Z,2.52
2019-04-22T12:01:37.009Z,2.22
2019-04-22T12:04:05.881Z,2.20
2019-04-22T12:06:35.817Z,2.30
2019-04-22T12:09:10.109Z,2.40
2019-04-22T12:11:38.734Z,2.22
2019-04-22T12:14:07.463Z,1.98
2019-04-22T12:16:37.136Z,2.10
2019-04-22T12:19:07.045Z,2.30
2019-04-22T12:21:37.104Z,2.15
2019-04-22T12:24:05.806Z,2.40
2019-04-22T12:26:34.722Z,2.50
2019-04-22T12:29:04.700Z,2.20
2019-04-22T12:31:33.593Z,2.20
2019-04-22T12:34:03.582Z,1.90
2019-04-22T12:36:32.795Z,2.15
2019-04-22T12:39:03.163Z,2.22
2019-04-22T12:41:31.697Z,2.00
2019-04-22T12:44:00.984Z,1.85
2019-04-22T12:46:30.158Z,1.98
2019-04-22T12:49:00.179Z,2.02
2019-04-22T12:51:29.211Z,2.17
2019-04-22T12:53:59.409Z,2.22
2019-04-22T12:56:27.978Z,2.00
2019-04-22T12:58:56.622Z,1.80
2019-04-22T13:01:26.684Z,2.10
2019-04-22T13:04:01.435Z,1.80
2019-04-22T13:06:25.829Z,1.87
2019-04-22T13:08:54.687Z,1.75
2019-04-22T13:11:28.762Z,2.02
2019-04-22T13:13:54.690Z,2.10
2019-04-22T13:16:24.831Z,2.10
2019-04-22T13:18:59.256Z,2.20
2019-04-22T13:21:24.649Z,1.50
2019-04-22T13:23:54.802Z,1.95
2019-04-22T13:26:23.452Z,2.10
2019-04-22T13:28:51.868Z,1.50
2019-04-22T13:31:20.872Z,2.10
2019-04-22T13:33:52.780Z,2.02
2019-04-22T13:36:23.676Z,1.80
2019-04-22T13:38:51.317Z,2.02
2019-04-22T13:41:31.055Z,2.17
2019-04-22T13:43:51.007Z,1.90
2019-04-22T13:46:20.011Z,1.80
2019-04-22T13:49:14.658Z,2.15
2019-04-22T13:51:52.988Z,2.08
2019-04-22T13:54:42.684Z,1.90
2019-04-22T13:56:38.856Z,2.00
2019-04-22T13:59:02.742Z,2.08
2019-04-22T14:01:22.768Z,1.77
2019-04-22T14:04:02.695Z,1.60
2019-04-22T14:06:31.236Z,1.70
2019-04-22T14:09:01.030Z,1.70
2019-04-22T14:11:38.387Z,1.70
2019-04-22T14:14:00.838Z,2.02
2019-04-22T14:16:31.017Z,1.65
2019-04-22T14:19:02.016Z,1.87
2019-04-22T14:21:30.690Z,1.60
2019-04-22T14:24:00.375Z,1.80
2019-04-22T14:26:45.929Z,1.82
2019-04-22T14:29:00.000Z,1.50
2019-04-22T14:31:28.766Z,1.52
2019-04-22T14:34:01.420Z,1.60
2019-04-22T14:36:27.614Z,1.60
2019-04-22T14:38:57.658Z,3.80
2019-04-22T14:41:40.330Z,1.97
2019-04-22T14:45:02.587Z,1.42
2019-04-22T14:46:58.673Z,1.90
2019-04-22T14:49:23.871Z,7.95
2019-04-22T14:51:49.893Z,2.17
2019-04-22T14:54:13.782Z,1.80
2019-04-22T14:56:28.579Z,1.77
2019-04-22T14:58:58.712Z,30.85
2019-04-22T15:01:28.692Z,85.63
2019-04-22T15:03:58.647Z,79.87
2019-04-22T15:06:28.481Z,2.75
2019-04-22T15:08:58.964Z,69.80
2019-04-22T15:11:28.876Z,151.95
2019-04-22T15:13:59.128Z,34.87
2019-04-22T15:16:39.774Z,5.20
2019-04-22T15:19:13.680Z,397.50
2019-04-22T15:21:43.002Z,430.40
2019-04-22T15:24:25.067Z,396.30
2019-04-22T15:26:56.314Z,194.32
2019-04-22T15:29:25.566Z,6.63
2019-04-22T15:31:55.545Z,65.00
2019-04-22T15:34:24.941Z,41.93
2019-04-22T15:36:54.065Z,146.20
2019-04-22T15:39:23.111Z,19.17
2019-04-22T15:42:01.744Z,12.33
2019-04-22T15:44:22.065Z,3.80
2019-04-22T15:46:50.986Z,5.17
2019-04-22T15:49:20.139Z,16.03
2019-04-22T15:51:49.052Z,2.25
2019-04-22T15:54:17.525Z,2.00
2019-04-22T15:56:46.601Z,2.37
2019-04-22T15:59:35.273Z,2.10
2019-04-22T16:01:46.807Z,1.80
2019-04-22T16:04:16.862Z,1.93
2019-04-22T16:06:47.184Z,2.10
2019-04-22T16:09:17.168Z,2.40
2019-04-22T16:11:45.889Z,2.40
2019-04-22T16:14:22.895Z,2.20
2019-04-22T16:16:46.254Z,2.17
2019-04-22T16:19:14.782Z,2.33
2019-04-22T16:21:53.029Z,2.20
2019-04-22T16:24:31.989Z,2.20
2019-04-22T16:27:02.440Z,1.80
2019-04-22T16:29:31.563Z,2.23
2019-04-22T16:32:01.200Z,2.23
2019-04-22T16:34:31.171Z,2.00
2019-04-22T16:37:00.850Z,2.23
2019-04-22T16:39:30.933Z,2.07
2019-04-22T16:42:00.644Z,2.40
2019-04-22T16:44:30.381Z,2.30
2019-04-22T16:46:59.539Z,2.20
2019-04-22T16:49:28.085Z,2.40
2019-04-22T16:51:56.492Z,2.50
2019-04-22T16:54:26.325Z,2.30
2019-04-22T16:56:55.171Z,2.30
2019-04-22T16:59:24.521Z,2.30
2019-04-22T17:02:10.637Z,4.23
2019-04-22T17:04:40.905Z,2.13
2019-04-22T17:07:11.323Z,2.40
2019-04-22T17:09:39.831Z,2.07
2019-04-22T17:12:09.539Z,2.27
2019-04-22T17:14:44.508Z,2.20
2019-04-22T17:17:08.834Z,2.70
2019-04-22T17:19:39.601Z,2.13
2019-04-22T17:22:08.155Z,2.00
2019-04-22T17:24:37.399Z,2.30
2019-04-22T17:27:06.427Z,1.87
2019-04-22T17:29:36.592Z,2.23
2019-04-22T17:32:11.286Z,2.03
2019-04-22T17:34:35.971Z,2.30
2019-04-22T17:37:11.307Z,2.30
2019-04-22T17:39:45.280Z,2.20
2019-04-22T17:42:25.213Z,2.33
2019-04-22T17:45:05.934Z,2.37
2019-04-22T17:47:29.081Z,2.30
2019-04-22T17:50:08.303Z,2.37
2019-04-22T17:52:39.537Z,2.40
2019-04-22T17:54:56.160Z,2.30
2019-04-22T17:57:32.522Z,2.33
2019-04-22T18:00:03.626Z,2.40
2019-04-22T18:02:27.491Z,2.37
2019-04-22T18:04:53.351Z,2.20
2019-04-22T18:07:49.321Z,2.53
2019-04-22T18:10:27.493Z,2.53
2019-04-22T18:15:11.412Z,2.30
2019-04-22T18:17:43.582Z,2.37
2019-04-22T18:20:09.477Z,2.70
2019-04-22T18:22:28.776Z,2.40
2019-04-22T18:24:56.771Z,2.47
2019-04-22T18:27:53.988Z,2.33
2019-04-22T18:30:01.890Z,2.40
2019-04-22T18:32:30.755Z,2.60
2019-04-22T18:35:00.879Z,2.53
2019-04-22T18:37:40.889Z,2.43
2019-04-22T18:40:12.021Z,2.87
2019-04-22T18:42:32.732Z,2.50
2019-04-22T18:45:23.282Z,2.67
2019-04-22T18:47:37.156Z,2.47
2019-04-22T18:50:02.808Z,2.63
2019-04-22T18:52:48.874Z,2.60
2019-04-22T18:55:19.295Z,2.70
2019-04-22T18:57:59.113Z,2.83
2019-04-22T19:00:18.068Z,2.90
2019-04-22T19:02:54.213Z,2.80
2019-04-22T19:05:30.304Z,2.70
2019-04-22T19:08:18.259Z,2.47
2019-04-22T19:10:51.845Z,2.87
2019-04-22T19:13:49.027Z,2.63
2019-04-22T19:15:43.148Z,2.73
2019-04-22T19:18:17.141Z,2.67
2019-04-22T19:20:56.634Z,2.40
2019-04-22T19:23:17.949Z,2.57
2019-04-22T19:25:42.475Z,2.40
2019-04-22T19:28:26.921Z,2.67
2019-04-22T19:30:48.169Z,2.23
2019-04-22T19:33:19.102Z,2.10
2019-04-22T19:35:40.422Z,2.87
2019-04-22T19:38:10.907Z,2.70
2019-04-22T19:40:58.145Z,2.30
2019-04-22T19:43:27.388Z,2.30
2019-04-22T19:45:50.519Z,2.20
2019-04-22T19:48:27.055Z,2.13
2019-04-22T19:51:00.170Z,2.20
2019-04-22T19:53:25.557Z,2.20
2019-04-22T19:55:48.226Z,2.37
2019-04-22T19:58:18.283Z,1.90
2019-04-22T20:01:12.281Z,1.90
2019-04-22T20:03:49.445Z,2.10
2019-04-22T20:06:15.485Z,1.67
2019-04-22T20:08:48.446Z,2.00
2019-04-22T20:11:23.194Z,2.00
2019-04-22T20:13:49.958Z,1.70
2019-04-22T20:16:10.098Z,2.03
2019-04-22T20:18:52.402Z,2.20
2019-04-22T20:21:25.104Z,2.40
2019-04-22T20:23:39.537Z,2.10
2019-04-22T20:26:13.765Z,2.20
2019-04-22T20:28:51.335Z,2.07
2019-04-22T20:31:22.644Z,2.13
2019-04-22T20:33:58.115Z,1.93
2019-04-22T20:36:42.616Z,1.60
2019-04-22T20:38:51.076Z,2.03
2019-04-22T20:41:15.890Z,2.20
2019-04-22T20:43:52.700Z,2.33
2019-04-22T20:46:20.721Z,2.40
2019-04-22T20:48:55.398Z,2.40
2019-04-22T20:51:29.657Z,2.33
2019-04-22T20:53:57.819Z,2.83
2019-04-22T20:56:21.017Z,3.23
2019-04-22T20:58:54.387Z,2.57
2019-04-22T21:01:15.790Z,2.60
2019-04-22T21:03:41.618Z,2.87
2019-04-22T21:06:23.268Z,2.40
2019-04-22T21:08:57.999Z,2.90
2019-04-22T21:11:19.620Z,2.37
2019-04-22T21:13:53.200Z,2.70
2019-04-22T21:16:31.476Z,2.97
2019-04-22T21:18:46.291Z,2.83
2019-04-22T21:21:26.329Z,2.87
2019-04-22T21:23:47.684Z,2.77
2019-04-22T21:26:24.044Z,3.17
2019-04-22T21:28:54.024Z,2.80
2019-04-22T21:31:30.643Z,3.40
2019-04-22T21:33:51.510Z,3.50
2019-04-22T21:36:33.298Z,3.53
2019-04-22T21:38:52.996Z,3.03
2019-04-22T21:41:23.247Z,3.63
2019-04-22T21:43:53.661Z,3.13
2019-04-22T21:46:22.966Z,3.17
2019-04-22T21:48:59.847Z,3.50
2019-04-22T21:51:32.347Z,3.57
2019-04-22T21:54:06.910Z,4.23
2019-04-22T21:56:41.003Z,3.83
2019-04-22T21:58:56.040Z,3.73
2019-04-22T22:01:38.263Z,3.57
2019-04-22T22:04:03.218Z,4.13
2019-04-22T22:06:23.582Z,3.90
2019-04-22T22:09:02.504Z,3.80
2019-04-22T22:11:30.310Z,3.60
2019-04-22T22:14:04.550Z,4.20
2019-04-22T22:16:30.820Z,4.30
2019-04-22T22:19:01.998Z,3.57
2019-04-22T22:21:53.177Z,3.70
2019-04-22T22:24:05.735Z,4.10
2019-04-22T22:26:38.548Z,4.40
2019-04-22T22:29:29.417Z,3.93
2019-04-22T22:31:40.183Z,4.03
2019-04-22T22:34:10.789Z,4.67
2019-04-22T22:36:29.591Z,4.03
2019-04-22T22:38:59.631Z,4.17
2019-04-22T22:41:14.006Z,4.37
2019-04-22T22:43:47.485Z,4.60
2019-04-22T22:46:25.777Z,4.83
2019-04-22T22:49:04.765Z,4.40
2019-04-22T22:51:43.020Z,4.17
2019-04-22T22:54:06.297Z,4.40
2019-04-22T22:56:42.240Z,5.30
2019-04-22T22:59:05.631Z,4.80
2019-04-22T23:01:37.928Z,5.00
2019-04-22T23:04:09.222Z,4.87
2019-04-22T23:06:40.634Z,4.90
2019-04-22T23:09:05.770Z,4.97
2019-04-22T23:11:53.766Z,4.53
2019-04-22T23:14:07.160Z,4.87
2019-04-22T23:16:25.262Z,4.73
2019-04-22T23:19:06.394Z,4.70
2019-04-22T23:21:39.773Z,5.10
2019-04-22T23:24:21.446Z,5.30
2019-04-22T23:27:07.128Z,5.67
2019-04-22T23:29:30.602Z,5.27
2019-04-22T23:32:07.270Z,4.77
2019-04-22T23:34:38.803Z,5.20
2019-04-22T23:37:12.222Z,5.60
2019-04-22T23:39:56.475Z,5.30
2019-04-22T23:42:18.914Z,5.27
2019-04-22T23:44:50.319Z,5.33
2019-04-22T23:47:11.778Z,5.10
2019-04-22T23:49:46.988Z,5.13
2019-04-22T23:52:37.324Z,5.23
2019-04-22T23:55:00.285Z,5.70
2019-04-22T23:57:26.358Z,5.50
2019-04-22T23:59:55.381Z,5.97
